createdAt,value
2022-08-18T00:01:14.801Z,7.10
2022-08-18T00:03:56.552Z,7.20
2022-08-18T00:08:59.344Z,6.60
2022-08-18T00:11:41.274Z,7.38
2022-08-18T00:14:19.691Z,7.10
2022-08-18T00:16:52.954Z,7.15
2022-08-18T00:19:43.577Z,7.63
2022-08-18T00:22:15.301Z,6.88
2022-08-18T00:24:48.143Z,7.47
2022-08-18T00:27:23.369Z,7.35
2022-08-18T00:29:53.295Z,7.38
2022-08-18T00:32:26.112Z,8.18
2022-08-18T00:34:56.041Z,8.50
2022-08-18T00:37:25.694Z,8.30
2022-08-18T00:39:55.554Z,8.90
2022-08-18T00:42:30.670Z,8.75
2022-08-18T00:45:06.725Z,8.85
2022-08-18T00:47:42.358Z,7.93
2022-08-18T00:50:24.490Z,8.40
2022-08-18T00:52:57.127Z,9.30
2022-08-18T00:55:26.303Z,9.43
2022-08-18T00:58:02.758Z,9.13
2022-08-18T01:00:31.049Z,8.88
2022-08-18T01:03:04.267Z,8.65
2022-08-18T01:05:41.013Z,8.85
2022-08-18T01:08:12.116Z,8.43
2022-08-18T01:10:40.695Z,8.40
2022-08-18T01:13:10.848Z,7.70
2022-08-18T01:15:39.878Z,8.07
2022-08-18T01:18:30.816Z,8.10
2022-08-18T01:21:22.969Z,7.45
2022-08-18T01:23:54.760Z,7.53
2022-08-18T01:26:24.484Z,7.45
2022-08-18T01:28:55.358Z,7.63
2022-08-18T01:31:38.367Z,7.18
2022-08-18T01:34:07.560Z,7.75
2022-08-18T01:36:38.929Z,7.68
2022-08-18T01:39:12.855Z,8.15
2022-08-18T01:41:42.340Z,7.50
2022-08-18T01:44:11.983Z,7.45
2022-08-18T01:46:43.103Z,7.45
2022-08-18T01:49:13.452Z,7.60
2022-08-18T01:51:42.901Z,6.97
2022-08-18T01:54:15.919Z,7.43
2022-08-18T01:56:45.326Z,7.47
2022-08-18T01:59:14.807Z,7.60
2022-08-18T02:01:50.380Z,7.72
2022-08-18T02:04:35.548Z,7.30
2022-08-18T02:07:07.601Z,7.20
2022-08-18T02:09:38.578Z,7.70
2022-08-18T02:12:08.324Z,7.35
2022-08-18T02:14:37.546Z,6.85
2022-08-18T02:17:08.469Z,6.97
2022-08-18T02:19:38.624Z,6.97
2022-08-18T02:22:09.463Z,7.05
2022-08-18T02:24:39.678Z,6.90
2022-08-18T02:27:09.097Z,6.25
2022-08-18T02:29:37.856Z,6.97
2022-08-18T02:32:07.136Z,6.82
2022-08-18T02:34:35.873Z,6.45
2022-08-18T02:37:04.550Z,6.50
2022-08-18T02:39:38.006Z,6.60
2022-08-18T02:42:08.219Z,6.68
2022-08-18T02:44:36.744Z,6.22
2022-08-18T02:47:06.317Z,7.10
2022-08-18T02:49:36.982Z,6.22
2022-08-18T02:52:06.141Z,6.47
2022-08-18T02:54:35.287Z,6.50
2022-08-18T02:57:10.791Z,6.40
2022-08-18T02:59:41.094Z,6.32
2022-08-18T03:02:11.548Z,6.28
2022-08-18T03:04:40.485Z,6.53
2022-08-18T03:07:09.839Z,6.25
2022-08-18T03:09:37.983Z,6.55
2022-08-18T03:12:08.988Z,6.13
2022-08-18T03:14:39.906Z,6.30
2022-08-18T03:17:10.612Z,5.57
2022-08-18T03:19:39.415Z,5.75
2022-08-18T03:22:27.480Z,5.80
2022-08-18T03:24:58.071Z,6.50
2022-08-18T03:27:27.990Z,5.90
2022-08-18T03:29:55.956Z,6.32
2022-08-18T03:32:27.085Z,5.95
2022-08-18T03:34:55.833Z,6.35
2022-08-18T03:37:24.985Z,6.20
2022-08-18T03:39:53.530Z,5.68
2022-08-18T03:42:22.657Z,5.60
2022-08-18T03:44:52.572Z,6.20
2022-08-18T03:47:21.306Z,5.75
2022-08-18T03:49:49.879Z,6.18
2022-08-18T03:52:18.459Z,5.28
2022-08-18T03:54:46.809Z,5.60
2022-08-18T03:57:15.191Z,6.38
2022-08-18T03:59:43.918Z,5.65
2022-08-18T04:02:13.667Z,6.00
2022-08-18T04:04:43.137Z,5.63
2022-08-18T04:07:14.439Z,6.15
2022-08-18T04:09:43.239Z,6.10
2022-08-18T04:12:17.366Z,5.78
2022-08-18T04:14:49.194Z,5.25
2022-08-18T04:17:23.638Z,5.40
2022-08-18T04:19:52.278Z,5.30
2022-08-18T04:22:20.436Z,5.38
2022-08-18T04:24:50.093Z,6.25
2022-08-18T04:27:19.385Z,5.57
2022-08-18T04:29:47.739Z,5.60
2022-08-18T04:32:16.243Z,5.93
2022-08-18T04:34:46.135Z,5.97
2022-08-18T04:37:15.573Z,5.80
2022-08-18T04:39:46.584Z,5.60
2022-08-18T04:42:15.058Z,5.70
2022-08-18T04:44:44.106Z,5.82
2022-08-18T04:47:13.470Z,5.47
2022-08-18T04:49:44.741Z,5.47
2022-08-18T04:52:40.028Z,5.93
2022-08-18T04:55:11.177Z,6.30
2022-08-18T04:57:40.073Z,5.88
2022-08-18T05:00:09.967Z,6.20
2022-08-18T05:02:38.509Z,6.10
2022-08-18T05:05:08.034Z,6.05
2022-08-18T05:07:37.756Z,6.35
2022-08-18T05:10:07.452Z,6.25
2022-08-18T05:12:36.534Z,6.68
2022-08-18T05:15:05.595Z,7.38
2022-08-18T05:17:33.646Z,6.07
2022-08-18T05:20:03.901Z,6.25
2022-08-18T05:22:40.869Z,6.13
2022-08-18T05:25:11.752Z,6.40
2022-08-18T05:27:42.811Z,7.22
2022-08-18T05:30:13.118Z,6.50
2022-08-18T05:32:48.273Z,6.75
2022-08-18T05:35:23.897Z,6.45
2022-08-18T05:38:23.524Z,6.70
2022-08-18T05:41:06.110Z,6.43
2022-08-18T05:43:34.576Z,6.70
2022-08-18T05:46:06.490Z,6.68
2022-08-18T05:48:39.802Z,6.07
2022-08-18T05:51:19.017Z,7.38
2022-08-18T05:54:06.003Z,6.78
2022-08-18T05:56:50.464Z,6.93
2022-08-18T05:59:27.591Z,6.88
2022-08-18T06:02:03.044Z,7.47
2022-08-18T06:04:41.139Z,7.72
2022-08-18T06:07:15.692Z,7.50
2022-08-18T06:09:51.577Z,7.72
2022-08-18T06:12:31.117Z,7.47
2022-08-18T06:15:05.776Z,7.55
2022-08-18T06:17:56.107Z,7.50
2022-08-18T06:20:32.130Z,6.90
2022-08-18T06:23:11.527Z,8.10
2022-08-18T06:25:56.168Z,7.50
2022-08-18T06:28:25.199Z,7.05
2022-08-18T06:31:00.725Z,8.05
2022-08-18T06:33:45.944Z,7.40
2022-08-18T06:36:22.225Z,7.93
2022-08-18T06:39:01.934Z,7.55
2022-08-18T06:41:42.779Z,7.57
2022-08-18T06:44:18.777Z,7.13
2022-08-18T06:46:53.792Z,8.00
2022-08-18T06:49:36.100Z,7.20
2022-08-18T06:52:23.085Z,8.07
2022-08-18T06:54:52.154Z,7.70
2022-08-18T06:57:29.906Z,7.82
2022-08-18T07:00:01.729Z,8.20
2022-08-18T07:02:53.564Z,7.75
2022-08-18T07:05:28.472Z,7.53
2022-08-18T07:08:12.351Z,6.85
2022-08-18T07:10:42.855Z,7.78
2022-08-18T07:13:22.211Z,7.20
2022-08-18T07:15:51.896Z,7.07
2022-08-18T07:18:27.398Z,7.60
2022-08-18T07:20:59.075Z,8.00
2022-08-18T07:23:35.049Z,8.80
2022-08-18T07:26:12.188Z,13.05
2022-08-18T07:28:47.364Z,7.57
2022-08-18T07:31:26.193Z,8.27
2022-08-18T07:33:59.095Z,7.75
2022-08-18T07:36:33.886Z,7.88
2022-08-18T07:39:07.492Z,8.00
2022-08-18T07:41:43.220Z,7.90
2022-08-18T07:44:18.906Z,7.30
2022-08-18T07:46:57.416Z,7.45
2022-08-18T07:49:28.582Z,7.93
2022-08-18T07:52:05.340Z,8.00
2022-08-18T07:54:49.742Z,8.77
2022-08-18T07:57:30.286Z,7.90
2022-08-18T08:00:10.543Z,8.65
2022-08-18T08:03:02.122Z,9.35
2022-08-18T08:05:43.526Z,8.57
2022-08-18T08:08:25.049Z,9.43
2022-08-18T08:11:07.376Z,9.88
2022-08-18T08:13:56.604Z,9.45
2022-08-18T08:16:37.426Z,8.98
2022-08-18T08:19:42.411Z,10.10
2022-08-18T08:22:17.876Z,10.23
2022-08-18T08:24:55.137Z,10.27
2022-08-18T08:27:30.189Z,11.05
2022-08-18T08:30:06.351Z,10.90
2022-08-18T08:32:39.173Z,11.38
2022-08-18T08:35:46.986Z,10.52
2022-08-18T08:38:38.804Z,11.57
2022-08-18T08:41:01.156Z,11.77
2022-08-18T08:43:33.442Z,11.73
2022-08-18T08:46:09.590Z,10.80
2022-08-18T08:48:45.688Z,10.98
2022-08-18T08:51:32.201Z,10.52
2022-08-18T08:54:08.358Z,10.32
2022-08-18T08:56:44.567Z,10.82
2022-08-18T08:59:15.239Z,10.73
2022-08-18T09:01:54.789Z,10.95
2022-08-18T09:04:35.826Z,11.73
2022-08-18T09:07:18.844Z,11.43
2022-08-18T09:10:16.737Z,10.27
2022-08-18T09:13:02.747Z,11.35
2022-08-18T09:15:55.608Z,11.02
2022-08-18T09:18:38.061Z,11.23
2022-08-18T09:21:22.838Z,11.50
2022-08-18T09:23:56.219Z,13.18
2022-08-18T09:26:39.947Z,13.35
2022-08-18T09:29:18.978Z,13.95
2022-08-18T09:31:51.237Z,13.02
2022-08-18T09:34:35.453Z,13.95
2022-08-18T09:37:18.016Z,14.48
2022-08-18T09:40:16.431Z,13.20
2022-08-18T09:42:52.333Z,13.70
2022-08-18T09:45:55.513Z,14.02
2022-08-18T09:48:35.252Z,14.15
2022-08-18T09:51:34.783Z,14.15
2022-08-18T09:54:25.197Z,15.27
2022-08-18T09:57:22.474Z,15.85
2022-08-18T10:00:33.481Z,14.90
2022-08-18T10:03:06.330Z,15.10
2022-08-18T10:05:36.593Z,14.63
2022-08-18T10:08:37.785Z,13.25
2022-08-18T10:11:27.807Z,15.25
2022-08-18T10:14:12.384Z,18.00
2022-08-18T10:17:16.074Z,16.88
2022-08-18T10:19:55.186Z,17.25
2022-08-18T10:22:41.687Z,14.90
2022-08-18T10:25:22.503Z,14.88
2022-08-18T10:27:56.952Z,16.35
2022-08-18T10:31:06.425Z,14.85
2022-08-18T10:33:59.092Z,16.63
2022-08-18T10:36:53.496Z,16.27
2022-08-18T10:39:24.974Z,17.02
2022-08-18T10:42:01.428Z,17.10
2022-08-18T10:44:33.520Z,16.67
2022-08-18T10:47:11.986Z,16.55
2022-08-18T10:49:44.555Z,16.42
2022-08-18T10:53:17.015Z,15.75
2022-08-18T10:55:51.264Z,16.58
2022-08-18T10:58:45.637Z,14.15
2022-08-18T11:01:27.645Z,14.75
2022-08-18T11:04:14.514Z,16.27
2022-08-18T11:07:07.550Z,15.73
2022-08-18T11:12:53.596Z,18.70
2022-08-18T11:15:35.821Z,18.67
2022-08-18T11:18:19.791Z,18.65
2022-08-18T11:20:48.508Z,18.65
2022-08-18T11:26:18.322Z,20.10
2022-08-18T11:28:48.519Z,20.20
2022-08-18T11:31:17.639Z,20.88
2022-08-18T11:33:51.359Z,21.13
2022-08-18T11:36:30.287Z,20.80
2022-08-18T11:38:59.178Z,19.15
2022-08-18T11:41:47.916Z,19.27
2022-08-18T11:44:21.124Z,17.75
2022-08-18T11:46:50.059Z,18.30
2022-08-18T11:52:30.853Z,17.55
2022-08-18T11:55:14.420Z,17.75
2022-08-18T11:57:59.292Z,18.40
2022-08-18T12:00:42.479Z,17.15
2022-08-18T12:03:19.241Z,17.33
2022-08-18T12:05:56.318Z,16.98
2022-08-18T12:11:27.304Z,16.48
2022-08-18T12:14:29.688Z,15.45
2022-08-18T12:16:56.021Z,15.45
2022-08-18T12:19:25.471Z,15.30
2022-08-18T12:21:58.790Z,16.02
2022-08-18T12:24:36.768Z,16.58
2022-08-18T12:27:23.610Z,16.88
2022-08-18T12:29:53.063Z,16.70
2022-08-18T12:35:12.805Z,15.43
2022-08-18T12:37:59.591Z,16.27
2022-08-18T12:40:33.120Z,15.30
2022-08-18T12:43:01.086Z,14.63
2022-08-18T12:45:31.240Z,14.25
2022-08-18T12:48:04.433Z,14.55
2022-08-18T12:50:36.219Z,13.65
2022-08-18T12:55:45.698Z,13.95
2022-08-18T12:58:14.537Z,14.40
2022-08-18T13:00:42.913Z,14.38
2022-08-18T13:03:11.053Z,14.40
2022-08-18T13:05:39.281Z,14.93
2022-08-18T13:08:27.535Z,14.48
2022-08-18T13:11:15.018Z,12.85
2022-08-18T13:13:53.158Z,11.63
2022-08-18T13:16:38.578Z,12.48
2022-08-18T13:19:10.681Z,12.13
2022-08-18T13:21:41.335Z,11.68
2022-08-18T13:24:13.063Z,13.00
2022-08-18T13:26:45.877Z,11.20
2022-08-18T13:31:49.374Z,13.35
2022-08-18T13:34:24.536Z,12.60
2022-08-18T13:36:52.254Z,11.88
2022-08-18T13:39:24.764Z,11.77
2022-08-18T13:42:00.667Z,13.02
2022-08-18T13:44:29.281Z,10.32
2022-08-18T13:46:57.650Z,11.00
2022-08-18T13:49:30.426Z,10.20
2022-08-18T13:52:00.985Z,10.20
2022-08-18T13:54:33.971Z,9.85
2022-08-18T13:57:05.196Z,11.77
2022-08-18T13:59:34.822Z,10.63
2022-08-18T14:02:08.651Z,10.32
2022-08-18T14:04:38.618Z,11.38
2022-08-18T14:07:10.512Z,12.38
2022-08-18T14:09:42.136Z,11.10
2022-08-18T14:12:22.764Z,9.95
2022-08-18T14:14:54.007Z,10.70
2022-08-18T14:17:24.498Z,10.32
2022-08-18T14:20:15.132Z,10.73
2022-08-18T14:23:09.313Z,10.32
2022-08-18T14:25:56.745Z,10.68
2022-08-18T14:28:28.471Z,9.68
2022-08-18T14:30:57.636Z,10.57
2022-08-18T14:33:51.014Z,9.77
2022-08-18T14:36:17.142Z,11.57
2022-08-18T14:38:46.627Z,8.90
2022-08-18T14:41:21.121Z,8.15
2022-08-18T14:44:12.066Z,8.77
2022-08-18T14:46:47.677Z,8.70
2022-08-18T14:49:29.203Z,8.90
2022-08-18T14:51:59.146Z,8.73
2022-08-18T14:54:28.486Z,8.02
2022-08-18T14:57:01.782Z,8.45
2022-08-18T14:59:37.494Z,8.65
2022-08-18T15:02:13.056Z,8.10
2022-08-18T15:04:55.826Z,8.43
2022-08-18T15:07:26.062Z,7.85
2022-08-18T15:10:16.322Z,7.97
2022-08-18T15:12:43.876Z,7.35
2022-08-18T15:15:15.947Z,6.97
2022-08-18T15:17:49.996Z,7.65
2022-08-18T15:20:28.612Z,7.60
2022-08-18T15:23:18.483Z,7.45
2022-08-18T15:25:54.425Z,7.88
2022-08-18T15:28:27.191Z,6.63
2022-08-18T15:33:43.481Z,6.60
2022-08-18T15:36:28.863Z,6.47
2022-08-18T15:38:57.956Z,6.55
2022-08-18T15:41:35.385Z,6.20
2022-08-18T15:44:15.037Z,6.20
2022-08-18T15:46:51.310Z,6.55
2022-08-18T15:49:24.150Z,6.65
2022-08-18T15:51:52.661Z,6.78
2022-08-18T15:54:21.091Z,6.85
2022-08-18T15:56:57.870Z,6.18
2022-08-18T15:59:34.359Z,7.53
2022-08-18T16:02:11.382Z,7.93
2022-08-18T16:04:43.015Z,7.65
2022-08-18T16:07:14.009Z,7.68
2022-08-18T16:09:42.064Z,7.57
2022-08-18T16:12:11.018Z,7.60
2022-08-18T16:14:41.615Z,8.05
2022-08-18T16:17:23.440Z,7.97
2022-08-18T16:19:51.925Z,8.70
2022-08-18T16:22:21.668Z,7.45
2022-08-18T16:24:54.927Z,7.60
2022-08-18T16:27:23.151Z,9.43
2022-08-18T16:29:52.647Z,12.10
2022-08-18T16:32:21.107Z,11.98
2022-08-18T16:34:49.103Z,11.57
2022-08-18T16:37:18.254Z,11.85
2022-08-18T16:39:46.569Z,12.70
2022-08-18T16:42:17.206Z,12.68
2022-08-18T16:44:45.488Z,12.65
2022-08-18T16:47:18.376Z,12.20
2022-08-18T16:49:48.593Z,11.57
2022-08-18T16:52:17.265Z,12.13
2022-08-18T16:54:46.927Z,11.80
2022-08-18T16:57:53.711Z,12.93
2022-08-18T17:00:41.703Z,11.85
2022-08-18T17:03:29.196Z,12.32
2022-08-18T17:06:02.215Z,12.32
2022-08-18T17:08:33.602Z,12.88
2022-08-18T17:11:02.292Z,12.48
2022-08-18T17:13:31.552Z,14.07
2022-08-18T17:16:02.572Z,12.95
2022-08-18T17:18:32.830Z,13.02
2022-08-18T17:21:03.769Z,12.65
2022-08-18T17:23:31.723Z,12.60
2022-08-18T17:26:02.656Z,13.77
2022-08-18T17:28:39.676Z,13.10
2022-08-18T17:31:12.920Z,12.88
2022-08-18T17:33:46.542Z,14.85
2022-08-18T17:36:20.670Z,15.23
2022-08-18T17:38:57.197Z,15.32
2022-08-18T17:41:26.431Z,14.98
2022-08-18T17:43:57.615Z,16.00
2022-08-18T17:46:30.087Z,14.80
2022-08-18T17:49:04.511Z,15.15
2022-08-18T17:51:43.583Z,14.98
2022-08-18T17:54:24.616Z,15.07
2022-08-18T17:56:58.050Z,15.73
2022-08-18T17:59:45.587Z,15.18
2022-08-18T18:02:29.409Z,15.82
2022-08-18T18:05:02.248Z,16.45
2022-08-18T18:07:33.702Z,16.20
2022-08-18T18:10:04.068Z,15.63
2022-08-18T18:12:34.773Z,16.13
2022-08-18T18:15:06.048Z,15.95
2022-08-18T18:17:37.951Z,15.75
2022-08-18T18:20:23.712Z,15.68
2022-08-18T18:22:52.758Z,16.08
2022-08-18T18:25:34.664Z,15.23
2022-08-18T18:28:03.159Z,14.13
2022-08-18T18:30:32.916Z,14.88
2022-08-18T18:33:03.881Z,13.63
2022-08-18T18:35:50.008Z,13.88
2022-08-18T18:38:28.228Z,14.38
2022-08-18T18:41:00.309Z,12.90
2022-08-18T18:43:34.844Z,13.40
2022-08-18T18:46:18.904Z,12.75
2022-08-18T18:48:55.602Z,12.05
2022-08-18T18:51:33.574Z,11.82
2022-08-18T18:54:22.057Z,12.00
2022-08-18T18:56:54.130Z,12.32
2022-08-18T18:59:38.607Z,11.90
2022-08-18T19:02:34.107Z,11.30
2022-08-18T19:05:13.512Z,11.80
2022-08-18T19:07:54.420Z,11.88
2022-08-18T19:10:30.063Z,11.88
2022-08-18T19:13:03.596Z,10.80
2022-08-18T19:15:38.230Z,11.63
2022-08-18T19:18:23.154Z,11.90
2022-08-18T19:22:03.913Z,12.10
2022-08-18T19:23:51.150Z,12.32
2022-08-18T19:26:27.985Z,12.15
2022-08-18T19:29:12.262Z,12.48
2022-08-18T19:31:48.891Z,12.02
2022-08-18T19:34:22.819Z,12.30
2022-08-18T19:37:02.094Z,12.57
2022-08-18T19:39:41.361Z,13.32
2022-08-18T19:42:19.891Z,12.88
2022-08-18T19:45:13.395Z,12.18
2022-08-18T19:47:50.206Z,12.48
2022-08-18T19:50:39.549Z,13.30
2022-08-18T19:53:33.307Z,12.82
2022-08-18T19:56:38.961Z,12.85
2022-08-18T19:59:33.967Z,13.27
2022-08-18T20:02:21.011Z,12.65
2022-08-18T20:05:04.629Z,13.02
2022-08-18T20:10:47.909Z,13.27
2022-08-18T20:13:41.275Z,12.43
2022-08-18T20:16:35.504Z,13.63
2022-08-18T20:19:45.719Z,13.23
2022-08-18T20:22:31.198Z,12.82
2022-08-18T20:25:05.910Z,13.35
2022-08-18T20:27:38.405Z,13.18
2022-08-18T20:30:34.129Z,12.88
2022-08-18T20:33:30.473Z,13.25
2022-08-18T20:36:29.153Z,12.27
2022-08-18T20:38:59.238Z,13.45
2022-08-18T20:41:47.565Z,13.60
2022-08-18T20:44:29.383Z,13.52
2022-08-18T20:47:12.387Z,13.90
2022-08-18T20:49:52.889Z,14.03
2022-08-18T20:52:30.139Z,13.75
2022-08-18T20:55:11.646Z,14.25
2022-08-18T20:57:41.857Z,13.07
2022-08-18T21:00:16.154Z,14.35
2022-08-18T21:02:58.689Z,13.75
2022-08-18T21:05:32.613Z,13.48
2022-08-18T21:08:13.345Z,13.40
2022-08-18T21:10:50.849Z,13.80
2022-08-18T21:13:29.826Z,14.13
2022-08-18T21:15:58.411Z,13.85
2022-08-18T21:18:28.590Z,13.98
2022-08-18T21:20:59.306Z,14.20
2022-08-18T21:23:30.580Z,13.50
2022-08-18T21:26:06.658Z,13.35
2022-08-18T21:28:38.872Z,14.70
2022-08-18T21:31:42.510Z,13.55
2022-08-18T21:34:01.845Z,13.57
2022-08-18T21:36:31.741Z,14.50
2022-08-18T21:39:05.591Z,14.57
2022-08-18T21:41:40.509Z,14.63
2022-08-18T21:44:15.321Z,16.25
2022-08-18T21:46:46.058Z,14.88
2022-08-18T21:49:24.773Z,15.48
2022-08-18T21:51:52.959Z,14.65
2022-08-18T21:54:24.122Z,15.27
2022-08-18T21:57:20.700Z,15.55
2022-08-18T22:00:19.613Z,15.32
2022-08-18T22:02:52.040Z,15.43
2022-08-18T22:05:58.849Z,14.50
2022-08-18T22:08:23.461Z,15.80
2022-08-18T22:11:59.346Z,14.23
2022-08-18T22:14:53.550Z,15.57
2022-08-18T22:17:42.179Z,15.07
2022-08-18T22:20:45.205Z,15.65
2022-08-18T22:23:43.333Z,15.10
2022-08-18T22:26:14.062Z,16.02
2022-08-18T22:28:54.146Z,15.73
2022-08-18T22:31:24.219Z,15.25
2022-08-18T22:33:54.057Z,16.65
2022-08-18T22:36:28.678Z,16.25
2022-08-18T22:38:57.220Z,15.55
2022-08-18T22:41:26.056Z,15.50
2022-08-18T22:43:55.512Z,15.85
2022-08-18T22:46:25.405Z,15.05
2022-08-18T22:48:54.726Z,15.48
2022-08-18T22:51:27.904Z,14.93
2022-08-18T22:53:57.149Z,15.95
2022-08-18T22:56:34.270Z,16.08
2022-08-18T22:59:13.613Z,16.50
2022-08-18T23:01:47.167Z,16.92
2022-08-18T23:04:17.026Z,15.82
2022-08-18T23:06:52.319Z,16.02
2022-08-18T23:09:23.976Z,17.77
2022-08-18T23:11:53.643Z,15.98
2022-08-18T23:14:22.291Z,16.13
2022-08-18T23:16:51.257Z,16.35
2022-08-18T23:19:22.073Z,16.35
2022-08-18T23:21:51.708Z,15.57
2022-08-18T23:24:20.806Z,16.48
2022-08-18T23:26:49.472Z,16.40
2022-08-18T23:29:19.026Z,16.33
2022-08-18T23:31:48.495Z,15.70
2022-08-18T23:34:18.447Z,16.40
2022-08-18T23:36:49.442Z,16.65
2022-08-18T23:39:18.706Z,16.58
2022-08-18T23:41:46.781Z,15.98
2022-08-18T23:44:16.997Z,15.32
2022-08-18T23:46:45.609Z,15.73
2022-08-18T23:49:14.961Z,16.70
2022-08-18T23:51:45.798Z,16.27
2022-08-18T23:54:17.884Z,16.67
2022-08-18T23:56:49.499Z,15.23
2022-08-18T23:59:19.458Z,16.35
